Time;durP1;ratioP1;P1;durP2;ratioP2;P2;SDS_P1;SDS_P2;PMS_P1;PMS_P2;Temp;Humidity;BMP_temperature;BMP_pressure;BME280_temperature;BME280_humidity;BME280_pressure;Samples;Min_cycle;Max_cycle;Signal;HPM_P1;HPM_P2
2022/04/24 00:01:15;;;;;;;21.50;13.65;;;;;;;11.67;80.02;98989.06;4469973;32;33508;-67
2022/04/24 00:03:43;;;;;;;18.92;12.35;;;;;;;11.86;78.62;98981.16;4470254;32;34739;-67
2022/04/24 00:06:11;;;;;;;21.30;12.98;;;;;;;11.79;78.83;98980.59;4470195;32;34265;-67
2022/04/24 00:08:38;;;;;;;19.62;12.43;;;;;;;11.99;78.21;98982.50;4469951;32;34552;-67
2022/04/24 00:11:06;;;;;;;19.05;12.48;;;;;;;11.49;79.98;98982.31;4469958;32;33287;-66
2022/04/24 00:13:41;;;;;;;23.20;13.68;;;;;;;11.80;78.58;98979.53;4470227;32;34522;-67
2022/04/24 00:16:09;;;;;;;19.37;12.55;;;;;;;11.65;79.89;98981.19;4468813;32;34119;-66
2022/04/24 00:18:38;;;;;;;19.37;12.25;;;;;;;11.85;78.00;98982.22;4470228;32;33868;-67
2022/04/24 00:21:05;;;;;;;19.08;12.50;;;;;;;11.97;77.72;98974.63;4469977;32;34499;-66
2022/04/24 00:23:33;;;;;;;20.33;13.32;;;;;;;12.01;77.28;98969.44;4470099;32;33791;-67
2022/04/24 00:26:01;;;;;;;19.15;12.90;;;;;;;11.88;77.74;98968.12;4469264;32;34207;-66
2022/04/24 00:28:28;;;;;;;18.08;12.95;;;;;;;11.91;77.93;98945.81;4469986;32;34015;-67
2022/04/24 00:30:56;;;;;;;19.98;13.45;;;;;;;11.45;79.56;98946.72;4469813;32;34333;-66
2022/04/24 00:33:24;;;;;;;20.27;12.85;;;;;;;11.89;77.41;98937.12;4470038;32;34828;-66
2022/04/24 00:35:51;;;;;;;19.33;12.30;;;;;;;11.64;79.07;98936.09;4469699;32;34123;-67
2022/04/24 00:38:19;;;;;;;18.83;11.93;;;;;;;11.82;77.70;98940.13;4469965;32;34673;-67
2022/04/24 00:40:47;;;;;;;20.12;12.93;;;;;;;11.89;77.29;98945.28;4469733;32;34415;-66
2022/04/24 00:43:15;;;;;;;20.35;12.32;;;;;;;11.39;79.26;98944.28;4469699;32;33801;-67
2022/04/24 00:45:45;;;;;;;20.80;13.55;;;;;;;11.09;81.01;98949.47;4469713;32;34064;-68
2022/04/24 00:48:12;;;;;;;19.17;12.25;;;;;;;11.66;78.30;98946.66;4470079;32;34563;-67
2022/04/24 00:51:00;;;;;;;20.40;13.30;;;;;;;11.39;78.85;98945.09;4469818;32;34404;-67
2022/04/24 00:53:27;;;;;;;20.25;12.75;;;;;;;11.30;79.75;98941.31;4469834;32;33879;-66
2022/04/24 00:55:55;;;;;;;19.10;12.30;;;;;;;11.70;77.79;98936.88;4469263;32;34057;-68
2022/04/24 00:58:23;;;;;;;20.48;12.20;;;;;;;11.63;77.95;98953.47;4469749;32;33674;-66
2022/04/24 01:00:51;;;;;;;18.12;12.43;;;;;;;11.05;79.73;98942.94;4468490;32;33959;-66
2022/04/24 01:03:19;;;;;;;19.15;12.05;;;;;;;11.22;79.94;98953.53;4469357;32;34688;-66
2022/04/24 01:05:47;;;;;;;20.67;13.65;;;;;;;11.01;80.37;98946.47;4468301;32;35097;-67
2022/04/24 01:08:14;;;;;;;21.08;12.70;;;;;;;10.97;80.96;98948.94;4469756;32;33733;-67
2022/04/24 01:10:41;;;;;;;20.23;13.35;;;;;;;11.48;78.63;98954.31;4469095;32;33985;-67
2022/04/24 01:13:10;;;;;;;17.75;12.05;;;;;;;11.24;79.52;98953.25;4469512;32;34104;-67
2022/04/24 01:15:37;;;;;;;18.55;12.32;;;;;;;11.65;77.78;98947.78;4469803;32;34411;-66
2022/04/24 01:18:05;;;;;;;19.77;12.70;;;;;;;11.57;77.48;98948.31;4469630;32;34570;-67
2022/04/24 01:20:34;;;;;;;19.02;13.18;;;;;;;11.29;78.81;98945.94;4469455;32;34297;-69
2022/04/24 01:23:01;;;;;;;21.05;13.65;;;;;;;10.73;82.06;98940.47;4469330;32;33564;-67
2022/04/24 01:25:29;;;;;;;18.65;12.32;;;;;;;11.12;79.70;98936.44;4469180;32;34297;-67
2022/04/24 01:27:56;;;;;;;19.60;11.98;;;;;;;11.82;76.73;98948.28;4469460;32;34643;-67
2022/04/24 01:30:24;;;;;;;20.88;13.95;;;;;;;11.06;79.52;98932.91;4469654;32;33612;-67
2022/04/24 01:32:51;;;;;;;19.10;12.75;;;;;;;11.08;79.65;98928.84;4469111;32;34766;-67
2022/04/24 01:35:19;;;;;;;19.27;12.05;;;;;;;10.94;80.94;98932.38;4469179;32;34749;-66
2022/04/24 01:37:46;;;;;;;20.40;12.98;;;;;;;11.42;77.91;98927.44;4470082;32;33939;-68
2022/04/24 01:40:14;;;;;;;20.85;12.68;;;;;;;11.37;77.82;98919.31;4478943;32;34506;-67
2022/04/24 01:42:41;;;;;;;19.45;12.45;;;;;;;11.26;78.33;98919.31;4487057;32;33779;-67
2022/04/24 01:45:09;;;;;;;17.80;12.10;;;;;;;10.93;79.31;98903.59;4486872;32;34101;-67
2022/04/24 01:47:36;;;;;;;19.95;12.10;;;;;;;11.36;77.92;98918.50;4486893;32;33888;-66
2022/04/24 01:50:04;;;;;;;20.55;12.57;;;;;;;10.72;81.02;98917.16;4486709;32;33429;-69
2022/04/24 01:52:32;;;;;;;20.48;13.77;;;;;;;10.61;81.59;98915.53;4486820;32;34052;-67
2022/04/24 01:54:59;;;;;;;18.33;12.88;;;;;;;11.03;79.24;98920.69;4485138;32;34998;-67
2022/04/24 01:57:27;;;;;;;19.75;12.68;;;;;;;10.42;82.15;98913.31;4486705;32;34492;-66
2022/04/24 01:59:54;;;;;;;18.48;11.93;;;;;;;11.14;78.71;98920.69;4486673;32;33540;-70
2022/04/24 02:02:22;;;;;;;19.85;12.63;;;;;;;11.21;78.09;98916.63;4486714;32;34699;-66
2022/04/24 02:04:49;;;;;;;18.55;11.50;;;;;;;10.93;79.84;98920.72;4486678;32;34205;-67
2022/04/24 02:07:17;;;;;;;18.67;12.10;;;;;;;11.05;79.34;98921.22;4486682;32;33688;-66
2022/04/24 02:09:44;;;;;;;22.83;13.43;;;;;;;10.49;81.71;98915.75;4475889;32;34343;-67
2022/04/24 02:12:12;;;;;;;20.25;13.23;;;;;;;10.60;81.80;98913.88;4470927;32;34121;-66
2022/04/24 02:14:39;;;;;;;19.52;12.60;;;;;;;10.79;79.78;98916.91;4471096;32;33952;-67
2022/04/24 02:17:07;;;;;;;19.80;13.43;;;;;;;10.60;81.28;98922.03;4470492;32;34602;-66
2022/04/24 02:19:35;;;;;;;19.67;12.57;;;;;;;10.97;79.55;98919.09;4471055;32;34196;-67
2022/04/24 02:22:03;;;;;;;20.02;12.82;;;;;;;10.85;79.98;98913.09;4471014;32;33697;-66
2022/04/24 02:24:30;;;;;;;18.80;13.23;;;;;;;10.71;80.74;98917.41;4479464;32;34325;-66
2022/04/24 02:26:58;;;;;;;21.83;13.52;;;;;;;10.95;79.55;98904.13;4486551;32;34433;-70
2022/04/24 02:29:27;;;;;;;20.52;13.38;;;;;;;10.63;81.12;98905.22;4486390;32;33374;-66
2022/04/24 02:31:54;;;;;;;21.42;13.05;;;;;;;10.64;81.22;98890.56;4473048;32;34059;-67
2022/04/24 02:34:22;;;;;;;20.25;12.65;;;;;;;10.72;80.95;98905.50;4470781;32;35021;-66
2022/04/24 02:36:49;;;;;;;21.85;13.30;;;;;;;10.94;79.64;98906.03;4470813;32;34550;-66
2022/04/24 02:39:17;;;;;;;18.98;12.18;;;;;;;10.92;79.72;98899.25;4470665;32;33558;-67
2022/04/24 02:41:45;;;;;;;18.67;12.35;;;;;;;11.25;78.39;98916.88;4470756;32;34704;-66
2022/04/24 02:44:12;;;;;;;21.15;13.48;;;;;;;10.82;80.38;98906.31;4470651;32;34534;-69
2022/04/24 02:46:39;;;;;;;21.37;13.90;;;;;;;10.73;80.34;98910.63;4470615;32;33630;-67
2022/04/24 02:49:07;;;;;;;23.85;14.93;;;;;;;10.79;80.13;98908.75;4470150;32;34479;-67
2022/04/24 02:51:35;;;;;;;20.88;13.73;;;;;;;10.88;79.99;98902.53;4470658;32;33942;-70
2022/04/24 02:54:02;;;;;;;19.05;12.90;;;;;;;10.36;82.44;98905.44;4470379;32;34018;-66
2022/04/24 02:56:30;;;;;;;21.05;13.48;;;;;;;10.87;80.09;98902.78;4470942;32;33888;-66
2022/04/24 02:58:57;;;;;;;19.45;12.55;;;;;;;10.73;80.18;98904.41;4470632;32;33626;-66
2022/04/24 03:01:24;;;;;;;20.08;12.93;;;;;;;10.68;80.15;98894.38;4470411;32;33555;-70
2022/04/24 03:03:52;;;;;;;20.75;13.05;;;;;;;10.97;79.50;98893.81;4470611;32;34248;-71
2022/04/24 03:06:20;;;;;;;21.33;13.62;;;;;;;10.54;80.82;98880.53;4470826;32;33770;-69
2022/04/24 03:08:47;;;;;;;25.27;14.65;;;;;;;11.14;77.96;98891.62;4485098;32;34478;-66
2022/04/24 03:11:15;;;;;;;26.08;14.85;;;;;;;10.50;80.83;98878.63;4486094;32;34592;-66
2022/04/24 03:13:43;;;;;;;21.77;13.68;;;;;;;9.99;84.18;98890.94;4486111;32;34069;-67
2022/04/24 03:16:11;;;;;;;19.55;13.57;;;;;;;9.98;84.26;98864.13;4486301;32;33671;-67
2022/04/24 03:18:38;;;;;;;19.83;12.52;;;;;;;10.33;82.65;98879.69;4486475;32;33560;-67
2022/04/24 03:21:06;;;;;;;20.52;12.95;;;;;;;10.82;79.55;98872.91;4485945;32;34009;-68
2022/04/24 03:23:33;;;;;;;20.70;13.13;;;;;;;10.66;80.27;98872.13;4485311;32;34236;-66
2022/04/24 03:26:01;;;;;;;25.23;14.00;;;;;;;10.96;79.25;98876.72;4486120;32;34633;-66
2022/04/24 03:28:28;;;;;;;22.23;13.48;;;;;;;10.93;78.59;98865.59;4485906;32;32638;-66
2022/04/24 03:30:56;;;;;;;20.85;13.60;;;;;;;10.17;82.53;98872.56;4485950;32;34723;-68
2022/04/24 03:33:24;;;;;;;22.10;12.88;;;;;;;10.65;80.47;98855.03;4486028;32;34224;-76
2022/04/24 03:35:51;;;;;;;25.27;14.20;;;;;;;10.73;79.93;98853.66;4485873;32;33950;-73
2022/04/24 03:38:19;;;;;;;19.83;12.65;;;;;;;10.55;81.33;98854.22;4469270;32;33517;-65
2022/04/24 03:40:46;;;;;;;23.75;15.10;;;;;;;10.78;80.34;98855.59;4470454;32;33935;-70
2022/04/24 03:43:14;;;;;;;22.27;14.40;;;;;;;11.07;78.72;98847.66;4470268;32;34815;-65
2022/04/24 03:45:41;;;;;;;25.27;14.38;;;;;;;10.76;79.87;98844.19;4482232;32;34654;-65
2022/04/24 03:48:09;;;;;;;22.77;14.00;;;;;;;10.32;82.89;98850.13;4484560;32;33956;-71
2022/04/24 03:50:36;;;;;;;26.15;13.57;;;;;;;10.24;82.90;98860.38;4484223;32;34724;-65
2022/04/24 03:53:04;;;;;;;21.60;13.95;;;;;;;10.81;80.39;98850.41;4485100;32;34599;-69
2022/04/24 03:55:31;;;;;;;24.67;14.60;;;;;;;10.95;78.92;98861.53;4485969;32;33857;-66
2022/04/24 03:57:59;;;;;;;20.40;13.43;;;;;;;10.86;79.51;98864.00;4485997;32;33579;-64
2022/04/24 04:00:26;;;;;;;23.52;14.30;;;;;;;10.36;82.07;98857.44;4485567;32;34839;-64
2022/04/24 04:02:54;;;;;;;23.85;14.20;;;;;;;10.99;78.63;98848.22;4485060;32;34324;-65
2022/04/24 04:05:22;;;;;;;24.08;14.52;;;;;;;10.84;79.18;98852.59;4485797;32;33647;-64
2022/04/24 04:07:49;;;;;;;21.85;13.68;;;;;;;10.37;81.95;98850.16;4470163;32;33353;-65
2022/04/24 04:10:17;;;;;;;23.30;14.23;;;;;;;10.62;80.84;98850.13;4470261;32;34097;-66
2022/04/24 04:12:44;;;;;;;23.92;13.90;;;;;;;10.82;79.88;98852.06;4470014;32;35082;-72
2022/04/24 04:15:12;;;;;;;21.12;13.82;;;;;;;10.92;79.06;98859.34;4469794;32;33785;-72
2022/04/24 04:17:40;;;;;;;22.40;13.82;;;;;;;10.62;80.61;98857.47;4470117;32;33542;-69
2022/04/24 04:20:11;;;;;;;22.13;13.48;;;;;;;10.93;79.49;98852.03;4469580;32;33875;-64
2022/04/24 04:22:45;;;;;;;23.65;14.43;;;;;;;11.11;78.69;98864.22;4470004;32;34334;-70
2022/04/24 04:25:12;;;;;;;22.67;13.27;;;;;;;10.88;79.67;98860.97;4470028;32;34619;-69
2022/04/24 04:27:40;;;;;;;22.02;14.32;;;;;;;10.85;79.62;98856.13;4469665;32;34351;-71
2022/04/24 04:30:09;;;;;;;24.05;13.75;;;;;;;11.16;77.80;98859.59;4470029;32;33924;-64
2022/04/24 04:32:36;;;;;;;23.92;14.48;;;;;;;10.72;80.27;98856.66;4469681;32;35103;-67
2022/04/24 04:35:05;;;;;;;23.30;14.13;;;;;;;10.91;79.46;98851.47;4474169;32;33681;-67
2022/04/24 04:37:33;;;;;;;21.73;14.15;;;;;;;11.08;78.34;98850.13;4474966;32;34085;-75
2022/04/24 04:40:02;;;;;;;21.02;13.68;;;;;;;10.79;79.88;98849.87;4484408;32;34716;-79
2022/04/24 04:42:30;;;;;;;22.42;13.00;;;;;;;11.03;78.80;98865.59;4484274;32;33855;-71
2022/04/24 04:45:00;;;;;;;22.35;13.60;;;;;;;11.31;77.83;98868.81;4474741;32;34614;-73
2022/04/24 04:47:27;;;;;;;22.83;14.00;;;;;;;11.09;78.28;98862.59;4467887;32;33530;-67
2022/04/24 04:49:55;;;;;;;21.20;12.68;;;;;;;11.60;76.59;98867.09;4469633;32;34088;-72
2022/04/24 04:52:23;;;;;;;21.23;12.95;;;;;;;11.21;77.13;98864.19;4469922;32;34187;-67
2022/04/24 04:54:51;;;;;;;21.10;13.40;;;;;;;11.75;75.82;98859.97;4469647;32;33938;-67
2022/04/24 04:57:18;;;;;;;20.42;12.50;;;;;;;12.24;74.78;98860.00;4469733;32;33782;-69
2022/04/24 04:59:46;;;;;;;19.27;12.60;;;;;;;12.63;71.72;98863.81;4472111;32;33532;-72
2022/04/24 05:02:13;;;;;;;17.50;11.30;;;;;;;12.77;71.20;98853.13;4483788;32;35039;-72
2022/04/24 05:04:43;;;;;;;19.25;11.90;;;;;;;13.07;70.18;98854.75;4478991;32;34072;-67
2022/04/24 05:07:11;;;;;;;19.55;12.68;;;;;;;13.19;68.98;98857.06;4482174;32;33491;-69
2022/04/24 05:09:39;;;;;;;17.58;11.25;;;;;;;12.28;72.17;98855.63;4483617;32;34749;-68
2022/04/24 05:12:07;;;;;;;20.65;12.50;;;;;;;12.11;73.69;98855.19;4476309;32;34190;-69
2022/04/24 05:14:35;;;;;;;22.08;14.00;;;;;;;12.37;72.60;98844.16;4469535;32;33888;-69
2022/04/24 05:17:03;;;;;;;22.17;12.80;;;;;;;12.67;71.49;98838.47;4476905;32;33576;-73
2022/04/24 05:19:30;;;;;;;22.98;14.18;;;;;;;12.62;71.41;98843.16;4484464;32;33960;-69
2022/04/24 05:21:59;;;;;;;24.10;15.55;;;;;;;12.11;74.28;98838.88;4482134;32;89641;-64
2022/04/24 05:24:26;;;;;;;24.33;14.85;;;;;;;11.98;75.45;98840.31;4482149;32;33916;-64
2022/04/24 05:26:54;;;;;;;24.35;15.13;;;;;;;12.15;74.88;98841.84;4484867;32;33298;-66
2022/04/24 05:29:22;;;;;;;20.85;14.40;;;;;;;11.87;75.37;98844.94;4484979;32;34009;-65
2022/04/24 05:31:49;;;;;;;24.90;14.48;;;;;;;12.91;71.43;98833.13;4484532;32;34214;-65
2022/04/24 05:34:17;;;;;;;24.08;15.10;;;;;;;12.69;72.16;98827.31;4484969;32;34679;-64
2022/04/24 05:36:44;;;;;;;26.00;14.63;;;;;;;12.91;71.89;98829.56;4485263;32;33539;-66
2022/04/24 05:39:12;;;;;;;23.35;14.32;;;;;;;13.55;69.66;98827.56;4484561;32;33955;-66
2022/04/24 05:41:39;;;;;;;22.52;14.70;;;;;;;13.55;69.25;98835.75;4484848;32;34235;-65
2022/04/24 05:44:07;;;;;;;20.98;14.52;;;;;;;14.36;67.29;98839.28;4484942;32;33852;-65
2022/04/24 05:46:34;;;;;;;21.48;13.75;;;;;;;14.37;65.40;98853.72;4484259;32;34312;-66
2022/04/24 05:49:02;;;;;;;23.30;14.40;;;;;;;14.87;64.16;98856.78;4484221;32;34065;-66
2022/04/24 05:51:35;;;;;;;20.80;12.90;;;;;;;14.70;63.45;98862.78;4483114;32;34295;-68
2022/04/24 05:54:03;;;;;;;20.15;13.43;;;;;;;13.66;67.71;98850.84;4484452;32;33265;-65
2022/04/24 05:56:30;;;;;;;21.67;14.05;;;;;;;13.28;69.38;98853.47;4483373;32;33443;-65
2022/04/24 05:58:58;;;;;;;20.58;12.70;;;;;;;12.97;70.76;98852.13;4484383;32;33532;-67
2022/04/24 06:01:25;;;;;;;21.05;13.70;;;;;;;12.92;71.88;98839.38;4484134;32;35104;-65
2022/04/24 06:03:53;;;;;;;23.27;13.93;;;;;;;13.22;70.26;98851.88;4484494;32;33989;-64
2022/04/24 06:06:22;;;;;;;22.40;13.75;;;;;;;13.34;70.20;98849.56;4484179;32;33270;-65
2022/04/24 06:08:49;;;;;;;23.10;13.77;;;;;;;13.81;69.08;98841.69;4484412;32;33732;-64
2022/04/24 06:11:19;;;;;;;22.65;14.55;;;;;;;13.45;70.34;98849.47;4484038;32;33810;-64
2022/04/24 06:13:47;;;;;;;20.92;13.18;;;;;;;14.01;68.47;98845.25;4484385;32;33959;-71
2022/04/24 06:16:15;;;;;;;19.12;12.85;;;;;;;14.48;65.17;98844.28;4484214;32;33574;-71
2022/04/24 06:18:42;;;;;;;21.70;13.32;;;;;;;14.69;65.53;98841.28;4484353;32;33783;-68
2022/04/24 06:21:10;;;;;;;20.23;13.27;;;;;;;15.29;63.49;98846.78;4482924;32;35026;-71
2022/04/24 06:23:37;;;;;;;22.98;13.57;;;;;;;14.75;63.83;98843.63;4483970;32;33547;-72
2022/04/24 06:26:05;;;;;;;21.10;13.43;;;;;;;13.64;68.46;98839.44;4486189;32;33663;-79
2022/04/24 06:28:32;;;;;;;23.42;14.27;;;;;;;13.81;68.20;98838.16;4486167;32;34642;-72
2022/04/24 06:31:00;;;;;;;21.60;14.80;;;;;;;14.53;65.74;98846.91;4486349;32;35043;-72
2022/04/24 06:33:27;;;;;;;23.12;13.70;;;;;;;14.26;66.16;98838.62;4485810;32;33649;-73
2022/04/24 06:35:55;;;;;;;21.10;13.82;;;;;;;13.83;68.35;98849.56;4485941;32;33630;-73
2022/04/24 06:38:24;;;;;;;23.10;13.57;;;;;;;14.83;65.22;98844.03;4486509;32;34712;-73
2022/04/24 06:40:51;;;;;;;21.90;13.32;;;;;;;15.26;63.04;98838.34;4486035;32;35025;-73
2022/04/24 06:43:19;;;;;;;18.77;12.68;;;;;;;15.58;62.47;98846.47;4486308;32;34033;-72
2022/04/24 06:45:46;;;;;;;20.42;12.02;;;;;;;16.49;59.83;98836.59;4486257;32;34342;-72
2022/04/24 06:48:15;;;;;;;19.95;12.68;;;;;;;15.91;63.21;98829.16;4486340;32;34134;-73
2022/04/24 06:50:45;;;;;;;21.00;11.75;;;;;;;16.69;58.62;98829.00;4485793;32;34129;-70
2022/04/24 06:53:13;;;;;;;18.35;12.32;;;;;;;16.35;60.76;98824.91;4486256;32;33819;-73
2022/04/24 06:55:42;;;;;;;17.90;11.43;;;;;;;17.01;57.80;98823.25;4486468;32;33643;-73
2022/04/24 06:58:12;;;;;;;15.30;9.88;;;;;;;17.54;55.75;98821.56;4486102;32;33916;-68
2022/04/24 07:00:42;;;;;;;16.60;11.07;;;;;;;17.93;55.13;98819.13;4484813;32;33804;-72
2022/04/24 07:03:30;;;;;;;16.80;10.60;;;;;;;17.00;57.73;98818.13;4484341;32;34869;-68
2022/04/24 07:05:57;;;;;;;16.98;10.68;;;;;;;18.00;55.58;98819.44;4485006;32;34325;-70
2022/04/24 07:08:25;;;;;;;17.12;11.25;;;;;;;18.60;53.98;98813.16;4481268;31;34208;-68
2022/04/24 07:10:53;;;;;;;16.33;10.50;;;;;;;18.59;52.17;98817.03;4484633;32;34067;-69
2022/04/24 07:13:21;;;;;;;17.70;11.12;;;;;;;19.10;51.66;98824.75;4483580;32;34120;-70
2022/04/24 07:15:49;;;;;;;16.60;10.68;;;;;;;18.89;51.47;98814.44;4484702;32;33600;-72
2022/04/24 07:18:17;;;;;;;18.50;11.10;;;;;;;18.81;52.04;98826.25;4484293;32;34694;-71
2022/04/24 07:20:44;;;;;;;18.92;11.10;;;;;;;18.44;52.82;98803.78;4484565;32;34902;-68
2022/04/24 07:23:12;;;;;;;17.17;10.30;;;;;;;19.00;51.70;98810.19;4484138;32;33876;-70
2022/04/24 07:25:43;;;;;;;17.55;10.68;;;;;;;18.32;52.68;98809.94;4470659;32;33589;-69
2022/04/24 07:28:15;;;;;;;18.10;11.05;;;;;;;18.54;54.72;98799.91;4483527;32;33795;-71
2022/04/24 07:30:43;;;;;;;17.12;10.82;;;;;;;18.15;54.24;98802.50;4484742;32;34313;-68
2022/04/24 07:33:11;;;;;;;15.82;10.50;;;;;;;17.95;56.36;98809.44;4484567;32;34633;-69
2022/04/24 07:35:40;;;;;;;16.98;10.55;;;;;;;17.97;54.61;98790.72;4482936;32;34441;-66
2022/04/24 07:38:08;;;;;;;16.42;10.90;;;;;;;17.53;56.25;98783.50;4484043;32;33878;-69
2022/04/24 07:40:36;;;;;;;19.05;11.02;;;;;;;18.21;53.87;98803.97;4484474;32;34860;-68
2022/04/24 07:43:05;;;;;;;18.00;11.35;;;;;;;17.15;56.38;98792.25;4484647;32;34617;-70
2022/04/24 07:45:43;;;;;;;17.85;10.45;;;;;;;16.65;59.43;98797.88;4483255;32;33565;-70
2022/04/24 07:48:12;;;;;;;17.08;10.05;;;;;;;17.24;57.12;98806.78;4484645;32;33453;-69
2022/04/24 07:50:47;;;;;;;16.42;10.38;;;;;;;17.18;58.55;98800.62;4483012;32;34269;-69
2022/04/24 07:53:16;;;;;;;19.90;11.12;;;;;;;17.46;58.08;98807.84;4483975;32;34038;-70
2022/04/24 07:55:45;;;;;;;16.95;9.75;;;;;;;17.53;57.12;98808.97;4470426;32;32716;-68
2022/04/24 07:58:13;;;;;;;17.37;10.15;;;;;;;18.12;56.75;98811.41;4483214;32;33803;-70
2022/04/24 08:00:42;;;;;;;16.75;9.95;;;;;;;18.03;54.95;98805.06;4484453;32;34051;-66
2022/04/24 08:03:11;;;;;;;15.40;9.80;;;;;;;18.09;54.76;98803.78;4483198;32;33957;-66
2022/04/24 08:05:44;;;;;;;16.52;9.63;;;;;;;17.15;57.96;98784.81;4484306;32;33452;-69
2022/04/24 08:08:19;;;;;;;17.37;10.95;;;;;;;17.22;57.58;98781.63;4484043;32;33542;-65
2022/04/24 08:10:52;;;;;;;16.65;10.18;;;;;;;17.73;56.76;98790.31;4483088;32;34160;-67
2022/04/24 08:13:20;;;;;;;18.65;10.45;;;;;;;18.11;56.20;98784.25;4482985;32;33829;-65
2022/04/24 08:15:48;;;;;;;17.35;10.82;;;;;;;18.66;54.46;98775.34;4484490;32;33007;-69
2022/04/24 08:18:16;;;;;;;16.95;10.13;;;;;;;18.83;53.56;98775.34;4484637;32;33823;-69
2022/04/24 08:20:45;;;;;;;14.77;8.93;;;;;;;17.96;56.21;98769.88;4482981;32;35072;-69
2022/04/24 08:23:15;;;;;;;15.30;9.65;;;;;;;18.92;55.55;98771.72;4482699;32;33755;-66
2022/04/24 08:25:43;;;;;;;15.60;9.82;;;;;;;19.18;52.64;98766.97;4483399;32;33359;-69
2022/04/24 08:28:12;;;;;;;16.02;9.55;;;;;;;19.52;50.99;98756.09;4483075;32;33099;-65
2022/04/24 08:30:41;;;;;;;13.57;8.45;;;;;;;18.99;53.76;98763.81;4484591;32;33781;-68
2022/04/24 08:33:09;;;;;;;14.65;8.88;;;;;;;19.81;50.07;98755.31;4482932;32;33597;-67
2022/04/24 08:35:37;;;;;;;15.55;8.52;;;;;;;20.06;49.74;98761.75;4482423;32;33113;-67
2022/04/24 08:38:05;;;;;;;13.88;8.30;;;;;;;19.71;50.00;98763.97;4483724;32;34700;-67
2022/04/24 08:40:33;;;;;;;15.43;8.85;;;;;;;20.11;49.86;98747.81;4484302;32;34846;-68
2022/04/24 08:43:00;;;;;;;14.45;8.38;;;;;;;19.25;51.44;98739.75;4484153;32;34405;-67
2022/04/24 08:45:29;;;;;;;12.15;8.15;;;;;;;20.47;48.50;98746.34;4484237;32;33997;-66
2022/04/24 08:47:58;;;;;;;14.77;8.68;;;;;;;20.14;50.51;98732.56;4482305;32;34744;-69
2022/04/24 08:50:27;;;;;;;13.68;8.98;;;;;;;20.00;50.26;98743.81;4483033;32;33664;-69
2022/04/24 08:52:58;;;;;;;14.23;8.15;;;;;;;19.67;50.35;98739.00;4469336;32;33817;-67
2022/04/24 08:55:27;;;;;;;11.10;7.57;;;;;;;19.63;49.93;98727.06;4484291;32;33618;-67
2022/04/24 08:57:56;;;;;;;14.10;7.40;;;;;;;20.00;49.87;98724.56;4484003;32;33979;-68
2022/04/24 09:00:25;;;;;;;11.57;7.28;;;;;;;19.76;49.73;98726.06;4484111;32;34185;-68
2022/04/24 09:02:53;;;;;;;8.00;5.12;;;;;;;19.97;49.95;98731.53;4484160;32;34004;-67
2022/04/24 09:05:21;;;;;;;6.28;3.87;;;;;;;20.75;47.40;98724.50;4481611;32;34246;-66
2022/04/24 09:07:52;;;;;;;6.53;4.20;;;;;;;21.05;44.51;98722.38;4485362;32;34118;-70
2022/04/24 09:10:54;;;;;;;5.12;3.35;;;;;;;20.84;43.77;98730.75;4477990;32;34324;-69
2022/04/24 09:16:36;;;;;;;6.05;3.25;;;;;;;20.10;47.49;98713.13;4485029;32;33041;-65
2022/04/24 09:19:04;;;;;;;4.57;2.47;;;;;;;19.91;47.97;98708.09;4485170;32;34089;-66
2022/04/24 09:21:32;;;;;;;3.58;2.08;;;;;;;19.71;46.62;98722.69;4485010;32;35020;-67
2022/04/24 09:24:00;;;;;;;6.62;2.10;;;;;;;19.51;45.49;98724.25;4484935;32;33994;-66
2022/04/24 09:26:28;;;;;;;3.40;1.95;;;;;;;19.63;46.07;98708.62;4484716;32;33298;-71
2022/04/24 09:29:11;;;;;;;5.90;1.95;;;;;;;20.26;44.43;98705.06;4485215;32;34620;-65
2022/04/24 09:31:47;;;;;;;2.92;1.83;;;;;;;20.25;43.69;98712.50;4485054;32;33970;-66
2022/04/24 09:34:19;;;;;;;2.15;1.65;;;;;;;20.54;44.60;98707.19;4483695;32;34493;-67
2022/04/24 09:36:52;;;;;;;3.40;1.73;;;;;;;20.71;44.69;98706.25;4484760;32;33004;-66
2022/04/24 09:39:34;;;;;;;2.80;1.77;;;;;;;20.49;43.42;98706.25;4483030;32;34056;-72
2022/04/24 09:42:08;;;;;;;5.95;1.60;;;;;;;20.90;43.54;98706.50;4485050;32;34363;-69
2022/04/24 09:44:41;;;;;;;2.60;1.25;;;;;;;20.87;42.70;98712.72;4483505;32;33103;-65
2022/04/24 09:47:29;;;;;;;1.23;1.12;;;;;;;20.16;42.05;98705.47;4484729;32;33517;-71
2022/04/24 09:49:59;;;;;;;1.67;1.00;;;;;;;19.61;41.92;98710.91;4484763;32;33969;-69
2022/04/24 09:52:31;;;;;;;1.30;0.90;;;;;;;19.90;42.08;98713.97;4484875;32;34352;-71
2022/04/24 09:55:00;;;;;;;1.00;0.90;;;;;;;19.85;41.76;98713.03;4483316;32;33733;-68
2022/04/24 09:57:29;;;;;;;2.83;1.00;;;;;;;19.52;42.20;98704.63;4484593;32;34047;-69
2022/04/24 09:59:57;;;;;;;3.47;0.93;;;;;;;19.74;41.27;98711.81;4486128;32;34788;-70
2022/04/24 10:02:26;;;;;;;1.73;1.00;;;;;;;19.40;42.25;98724.62;4485441;32;34884;-72
2022/04/24 10:04:54;;;;;;;2.20;1.35;;;;;;;19.78;41.21;98728.44;4485663;32;34658;-69
2022/04/24 10:07:21;;;;;;;3.25;0.90;;;;;;;19.25;41.87;98731.50;4485832;32;34109;-68
2022/04/24 10:09:49;;;;;;;1.10;0.90;;;;;;;19.12;41.32;98724.28;4485461;32;33523;-68
2022/04/24 10:12:19;;;;;;;2.55;1.00;;;;;;;18.92;42.39;98741.50;4486640;32;34424;-71
2022/04/24 10:14:50;;;;;;;1.58;0.80;;;;;;;18.78;42.98;98738.97;4485340;32;34113;-68
2022/04/24 10:17:51;;;;;;;0.80;0.80;;;;;;;18.74;43.35;98743.47;4481058;31;34241;-66
2022/04/24 10:21:10;;;;;;;2.35;0.90;;;;;;;18.77;43.63;98742.84;4469821;32;33720;-75
2022/04/24 10:23:38;;;;;;;1.50;0.85;;;;;;;18.95;43.75;98749.91;4451517;32;33987;-70
2022/04/24 10:26:22;;;;;;;2.30;0.90;;;;;;;19.24;45.39;98748.31;4469938;32;34363;-68
2022/04/24 10:29:02;;;;;;;1.40;0.85;;;;;;;19.00;44.89;98752.47;4467975;32;33502;-67
2022/04/24 10:31:41;;;;;;;1.95;0.80;;;;;;;18.40;46.49;98754.22;4468456;32;33650;-69
2022/04/24 10:34:09;;;;;;;2.92;0.90;;;;;;;17.81;47.71;98757.41;4467889;32;34149;-68
2022/04/24 10:36:37;;;;;;;0.75;0.73;;;;;;;17.70;46.92;98752.56;4469636;32;34518;-69
2022/04/24 10:39:15;;;;;;;0.62;0.62;;;;;;;17.90;46.85;98751.94;4469305;32;33385;-69
2022/04/24 10:42:00;;;;;;;0.95;0.75;;;;;;;18.23;46.58;98749.53;4468529;32;34843;-72
2022/04/24 10:44:28;;;;;;;1.60;0.85;;;;;;;18.34;47.39;98749.22;4467851;32;34197;-68
2022/04/24 10:46:57;;;;;;;2.12;1.00;;;;;;;18.20;46.62;98741.94;4469118;32;33697;-67
2022/04/24 10:49:33;;;;;;;1.80;0.90;;;;;;;18.14;47.12;98736.94;4469433;32;33412;-68
2022/04/24 11:43:08;;;;;;;1.20;1.10;;;;;;;18.24;50.54;98753.09;4507853;31;161045;-69
2022/04/24 11:51:17;;;;;;;2.17;1.27;;;;;;;17.49;52.92;98744.91;4512879;31;34965;-73
2022/04/24 11:54:09;;;;;;;2.75;1.42;;;;;;;18.11;51.66;98743.09;4513090;31;33682;-67
2022/04/24 11:56:38;;;;;;;2.53;1.48;;;;;;;18.38;51.29;98729.03;4513119;31;33488;-74
2022/04/24 11:59:22;;;;;;;2.05;1.30;;;;;;;18.63;49.93;98713.59;4513264;31;33828;-69
2022/04/24 12:01:59;;;;;;;1.50;1.20;;;;;;;18.80;49.23;98720.22;4511629;31;34258;-72
2022/04/24 12:04:31;;;;;;;2.55;1.30;;;;;;;18.76;49.92;98719.22;4513128;31;33523;-73
2022/04/24 12:07:11;;;;;;;1.77;1.45;;;;;;;19.23;48.38;98730.22;4513047;31;32856;-67
2022/04/24 12:09:39;;;;;;;2.00;1.50;;;;;;;19.02;48.83;98728.19;4513052;31;34003;-68
2022/04/24 12:12:09;;;;;;;1.62;1.30;;;;;;;19.26;48.30;98715.78;4513040;31;34727;-74
2022/04/24 12:14:37;;;;;;;1.85;1.50;;;;;;;19.63;48.28;98703.13;4511683;31;34739;-68
2022/04/24 12:17:08;;;;;;;1.48;1.20;;;;;;;19.23;48.72;98708.22;4511976;31;33389;-74
2022/04/24 12:19:50;;;;;;;2.28;1.60;;;;;;;20.04;49.59;98692.44;4511719;31;34734;-70
2022/04/24 12:22:26;;;;;;;3.42;1.77;;;;;;;20.37;47.59;98691.69;4512994;31;34938;-72
2022/04/24 12:24:54;;;;;;;3.20;1.55;;;;;;;19.79;48.24;98699.81;4507554;31;34552;-68
2022/04/24 12:27:21;;;;;;;2.25;1.48;;;;;;;19.87;47.61;98696.19;4512871;31;34015;-73
2022/04/24 12:29:49;;;;;;;2.53;1.60;;;;;;;20.39;47.92;98701.22;4513168;31;34072;-73
2022/04/24 12:32:18;;;;;;;2.15;1.50;;;;;;;20.46;46.75;98715.22;4512470;31;34194;-73